createdAt,value
2022-09-04T00:00:10.503Z,16.70
2022-09-04T00:03:17.342Z,16.70
2022-09-04T00:05:50.335Z,16.70
2022-09-04T00:08:40.763Z,16.60
2022-09-04T00:11:48.852Z,16.60
2022-09-04T00:14:20.970Z,16.50
2022-09-04T00:17:03.915Z,16.50
2022-09-04T00:19:44.158Z,16.20
2022-09-04T00:22:28.977Z,16.40
2022-09-04T00:25:15.059Z,16.40
2022-09-04T00:27:47.511Z,16.30
2022-09-04T00:30:20.272Z,16.30
2022-09-04T00:33:16.029Z,16.30
2022-09-04T00:35:48.861Z,16.30
2022-09-04T00:38:38.018Z,16.30
2022-09-04T00:41:21.099Z,16.20
2022-09-04T00:44:12.495Z,16.20
2022-09-04T00:46:53.151Z,16.10
2022-09-04T00:49:52.856Z,16.10
2022-09-04T00:52:58.371Z,16.10
2022-09-04T00:56:15.465Z,17.40
2022-09-04T00:58:48.154Z,16.00
2022-09-04T01:01:23.025Z,16.00
2022-09-04T01:04:23.597Z,15.90
2022-09-04T01:07:09.931Z,16.00
2022-09-04T01:09:51.451Z,15.90
2022-09-04T01:12:59.863Z,15.90
2022-09-04T01:15:47.371Z,15.90
2022-09-04T01:18:29.674Z,15.90
2022-09-04T01:21:23.554Z,16.00
2022-09-04T01:24:17.747Z,15.90
2022-09-04T01:27:01.324Z,16.00
2022-09-04T01:29:46.744Z,16.00
2022-09-04T01:32:35.217Z,15.90
2022-09-04T01:35:16.133Z,15.90
2022-09-04T01:38:01.591Z,15.90
2022-09-04T01:40:52.943Z,15.90
2022-09-04T01:43:21.505Z,15.90
2022-09-04T01:46:21.966Z,15.90
2022-09-04T01:49:23.042Z,15.80
2022-09-04T01:52:08.101Z,15.80
2022-09-04T01:54:51.095Z,15.80
2022-09-04T01:57:31.887Z,15.40
2022-09-04T02:00:17.307Z,15.80
2022-09-04T02:03:12.990Z,15.80
2022-09-04T02:06:11.549Z,15.70
2022-09-04T02:09:11.458Z,15.70
2022-09-04T02:11:48.954Z,15.70
2022-09-04T02:14:34.088Z,15.60
2022-09-04T02:17:18.238Z,15.60
2022-09-04T02:20:13.473Z,15.60
2022-09-04T02:23:01.729Z,15.50
2022-09-04T02:25:50.870Z,15.50
2022-09-04T02:28:30.086Z,15.40
2022-09-04T02:31:20.844Z,15.90
2022-09-04T02:34:13.031Z,15.40
2022-09-04T02:37:22.176Z,15.30
2022-09-04T02:40:00.741Z,15.30
2022-09-04T02:42:49.720Z,15.30
2022-09-04T02:45:33.217Z,15.30
2022-09-04T02:48:14.064Z,15.30
2022-09-04T02:51:18.206Z,15.20
2022-09-04T02:54:31.187Z,15.20
2022-09-04T02:57:14.972Z,15.20
2022-09-04T03:00:23.517Z,15.10
2022-09-04T03:03:02.584Z,15.10
2022-09-04T03:05:52.906Z,15.10
2022-09-04T03:08:25.334Z,15.10
2022-09-04T03:11:05.072Z,15.10
2022-09-04T03:13:47.034Z,15.10
2022-09-04T03:16:24.002Z,15.10
2022-09-04T03:19:08.576Z,15.10
2022-09-04T03:21:46.630Z,15.00
2022-09-04T03:24:32.195Z,14.90
2022-09-04T03:27:02.520Z,14.90
2022-09-04T03:29:45.091Z,14.90
2022-09-04T03:32:34.974Z,14.90
2022-09-04T03:35:22.250Z,14.80
2022-09-04T03:38:14.800Z,14.70
2022-09-04T03:41:07.588Z,14.60
2022-09-04T03:44:18.331Z,14.60
2022-09-04T03:47:09.325Z,14.60
2022-09-04T03:50:19.019Z,14.60
2022-09-04T03:52:55.913Z,14.60
2022-09-04T03:56:07.036Z,14.60
2022-09-04T03:59:00.130Z,14.60
2022-09-04T04:01:46.950Z,14.50
2022-09-04T04:04:42.331Z,14.50
2022-09-04T04:07:30.335Z,14.40
2022-09-04T04:10:24.757Z,14.40
2022-09-04T04:13:14.294Z,14.30
2022-09-04T04:15:54.797Z,14.30
2022-09-04T04:18:47.725Z,14.30
2022-09-04T04:21:33.728Z,14.20
2022-09-04T04:24:14.649Z,14.20
2022-09-04T04:27:13.313Z,14.10
2022-09-04T04:30:08.822Z,14.20
2022-09-04T04:32:59.326Z,14.10
2022-09-04T04:35:49.628Z,14.10
2022-09-04T04:38:44.697Z,14.10
2022-09-04T04:41:16.622Z,14.00
2022-09-04T04:44:16.853Z,14.00
2022-09-04T04:47:07.375Z,14.00
2022-09-04T04:50:00.161Z,14.00
2022-09-04T04:52:51.767Z,14.00
2022-09-04T04:55:24.783Z,14.00
2022-09-04T04:58:24.336Z,14.00
2022-09-04T05:01:06.165Z,14.00
2022-09-04T05:04:02.318Z,14.00
2022-09-04T05:06:54.047Z,14.00
2022-09-04T05:09:44.601Z,13.90
2022-09-04T05:12:18.415Z,14.00
2022-09-04T05:15:10.258Z,14.00
2022-09-04T05:17:53.497Z,14.00
2022-09-04T05:21:08.451Z,14.00
2022-09-04T05:23:50.607Z,14.00
2022-09-04T05:27:07.643Z,14.00
2022-09-04T05:30:08.545Z,14.10
2022-09-04T05:32:50.402Z,14.10
2022-09-04T05:35:35.622Z,14.10
2022-09-04T05:38:18.121Z,14.10
2022-09-04T05:41:06.142Z,14.20
2022-09-04T05:44:07.205Z,14.20
2022-09-04T05:47:05.600Z,14.30
2022-09-04T05:50:00.631Z,14.40
2022-09-04T05:52:56.383Z,14.50
2022-09-04T05:55:34.607Z,14.50
2022-09-04T05:58:18.230Z,14.60
2022-09-04T06:00:51.838Z,14.20
2022-09-04T06:03:41.749Z,14.70
2022-09-04T06:06:22.559Z,14.80
2022-09-04T06:09:17.291Z,14.80
2022-09-04T06:12:03.714Z,14.90
2022-09-04T06:15:02.392Z,14.90
2022-09-04T06:18:16.178Z,15.00
2022-09-04T06:21:26.635Z,15.00
2022-09-04T06:24:11.357Z,16.50
2022-09-04T06:27:05.891Z,15.20
2022-09-04T06:29:37.390Z,15.30
2022-09-04T06:32:19.206Z,15.20
2022-09-04T06:35:03.933Z,15.60
2022-09-04T06:37:57.511Z,15.70
2022-09-04T06:40:38.851Z,15.70
2022-09-04T06:43:29.756Z,15.80
2022-09-04T06:46:38.987Z,15.90
2022-09-04T06:49:24.073Z,15.90
2022-09-04T06:52:08.361Z,15.90
2022-09-04T06:54:59.983Z,16.00
2022-09-04T06:57:35.328Z,16.10
2022-09-04T07:00:11.279Z,16.20
2022-09-04T07:03:11.748Z,16.30
2022-09-04T07:05:53.454Z,16.40
2022-09-04T07:08:53.478Z,16.40
2022-09-04T07:11:54.209Z,16.50
2022-09-04T07:14:49.273Z,16.60
2022-09-04T07:17:29.659Z,16.70
2022-09-04T07:20:28.006Z,16.80
2022-09-04T07:23:23.769Z,17.10
2022-09-04T07:26:28.538Z,17.50
2022-09-04T07:29:32.659Z,18.10
2022-09-04T07:32:15.617Z,18.50
2022-09-04T07:34:57.685Z,18.30
2022-09-04T07:37:43.915Z,18.10
2022-09-04T07:40:24.876Z,17.90
2022-09-04T07:43:07.256Z,17.80
2022-09-04T07:45:55.311Z,19.80
2022-09-04T07:48:29.151Z,17.70
2022-09-04T07:51:10.053Z,17.70
2022-09-04T07:53:51.746Z,17.80
2022-09-04T07:56:45.565Z,17.90
2022-09-04T07:59:35.633Z,17.90
2022-09-04T08:02:19.538Z,18.00
2022-09-04T08:04:54.240Z,18.10
2022-09-04T08:07:53.958Z,18.20
2022-09-04T08:10:31.463Z,18.30
2022-09-04T08:13:34.234Z,18.30
2022-09-04T08:16:07.564Z,18.30
2022-09-04T08:18:55.276Z,18.40
2022-09-04T08:21:31.860Z,18.50
2022-09-04T08:24:34.039Z,18.60
2022-09-04T08:27:09.310Z,18.60
2022-09-04T08:29:57.728Z,18.80
2022-09-04T08:33:02.076Z,18.90
2022-09-04T08:35:52.579Z,18.90
2022-09-04T08:38:38.375Z,19.00
2022-09-04T08:41:37.794Z,19.10
2022-09-04T08:44:40.450Z,19.20
2022-09-04T08:47:36.545Z,19.40
2022-09-04T08:50:30.408Z,19.50
2022-09-04T08:53:12.398Z,19.60
2022-09-04T08:56:06.438Z,19.70
2022-09-04T08:58:56.431Z,19.70
2022-09-04T09:01:31.811Z,19.70
2022-09-04T09:04:48.328Z,19.80
2022-09-04T09:07:36.639Z,19.90
2022-09-04T09:10:33.191Z,20.10
2022-09-04T09:13:38.365Z,20.20
2022-09-04T09:17:00.148Z,20.30
2022-09-04T09:19:40.656Z,20.40
2022-09-04T09:22:36.547Z,20.50
2022-09-04T09:25:15.984Z,20.50
2022-09-04T09:28:25.204Z,20.70
2022-09-04T09:31:38.245Z,20.70
2022-09-04T09:34:32.400Z,20.70
2022-09-04T09:37:27.647Z,20.80
2022-09-04T09:40:15.645Z,20.80
2022-09-04T09:43:30.398Z,21.00
2022-09-04T09:46:22.096Z,21.00
2022-09-04T09:49:21.581Z,21.00
2022-09-04T09:52:00.007Z,20.80
2022-09-04T09:54:55.397Z,20.80
2022-09-04T09:57:38.982Z,20.90
2022-09-04T10:00:17.433Z,21.00
2022-09-04T10:03:02.215Z,21.10
2022-09-04T10:06:02.029Z,21.20
2022-09-04T10:09:11.802Z,21.30
2022-09-04T10:11:54.037Z,21.40
2022-09-04T10:14:52.092Z,21.50
2022-09-04T10:17:51.982Z,21.60
2022-09-04T10:20:56.466Z,21.60
2022-09-04T10:23:31.931Z,21.80
2022-09-04T10:26:10.570Z,21.80
2022-09-04T10:29:11.191Z,21.80
2022-09-04T10:32:22.795Z,21.90
2022-09-04T10:35:20.540Z,21.90
2022-09-04T10:38:09.222Z,22.00
2022-09-04T10:40:46.954Z,22.10
2022-09-04T10:43:37.797Z,21.40
2022-09-04T10:46:23.026Z,22.20
2022-09-04T10:49:37.500Z,22.20
2022-09-04T10:52:24.615Z,22.20
2022-09-04T10:55:32.721Z,22.20
2022-09-04T10:58:26.367Z,22.10
2022-09-04T11:01:32.254Z,22.30
2022-09-04T11:04:27.317Z,22.40
2022-09-04T11:07:12.756Z,22.50
2022-09-04T11:10:08.418Z,22.50
2022-09-04T11:12:53.390Z,22.50
2022-09-04T11:15:47.544Z,22.60
2022-09-04T11:18:45.603Z,22.70
2022-09-04T11:21:38.573Z,22.70
2022-09-04T11:25:01.678Z,22.80
2022-09-04T11:27:38.898Z,22.70
2022-09-04T11:30:31.352Z,22.80
2022-09-04T11:33:16.101Z,22.80
2022-09-04T11:36:00.516Z,22.90
2022-09-04T11:38:56.447Z,23.10
2022-09-04T11:42:02.061Z,23.00
2022-09-04T11:44:40.229Z,23.10
2022-09-04T11:47:33.104Z,23.20
2022-09-04T11:50:18.232Z,23.20
2022-09-04T11:53:08.302Z,23.20
2022-09-04T11:55:52.771Z,23.30
2022-09-04T11:58:47.274Z,23.20
2022-09-04T12:01:26.900Z,23.20
2022-09-04T12:04:37.567Z,23.30
2022-09-04T12:07:13.517Z,23.20
2022-09-04T12:10:04.970Z,23.30
2022-09-04T12:12:50.103Z,23.40
2022-09-04T12:15:34.071Z,23.40
2022-09-04T12:18:33.476Z,23.40
2022-09-04T12:21:44.339Z,23.50
2022-09-04T12:24:31.859Z,23.50
2022-09-04T12:27:35.457Z,23.60
2022-09-04T12:30:05.537Z,23.70
2022-09-04T12:32:55.924Z,23.70
2022-09-04T12:35:50.537Z,23.70
2022-09-04T12:38:45.972Z,23.70
2022-09-04T12:41:18.396Z,23.70
2022-09-04T12:44:08.605Z,23.70
2022-09-04T12:46:50.504Z,23.80
2022-09-04T12:49:56.147Z,23.60
2022-09-04T12:52:47.853Z,23.50
2022-09-04T12:55:41.661Z,23.50
2022-09-04T12:58:44.447Z,23.50
2022-09-04T13:01:18.735Z,23.50
2022-09-04T13:04:06.963Z,23.50
2022-09-04T13:06:40.273Z,23.70
2022-09-04T13:09:16.148Z,23.80
2022-09-04T13:11:54.017Z,24.00
2022-09-04T13:14:47.970Z,24.10
2022-09-04T13:17:30.722Z,24.20
2022-09-04T13:20:28.413Z,24.30
2022-09-04T13:23:37.054Z,24.20
2022-09-04T13:26:30.935Z,24.20
2022-09-04T13:29:16.363Z,24.20
2022-09-04T13:32:03.597Z,24.10
2022-09-04T13:35:02.080Z,24.10
2022-09-04T13:37:53.629Z,24.10
2022-09-04T13:40:41.042Z,24.20
2022-09-04T13:43:36.291Z,24.30
2022-09-04T13:46:11.653Z,24.30
2022-09-04T13:48:55.196Z,24.40
2022-09-04T13:51:32.946Z,24.60
2022-09-04T13:54:09.854Z,24.70
2022-09-04T13:57:02.119Z,24.80
2022-09-04T13:59:29.314Z,24.90
2022-09-04T14:02:02.237Z,24.80
2022-09-04T14:04:39.142Z,24.90
2022-09-04T14:07:18.666Z,24.80
2022-09-04T14:09:49.398Z,24.20
2022-09-04T14:12:39.439Z,25.10
2022-09-04T14:15:20.647Z,25.00
2022-09-04T14:18:23.085Z,24.90
2022-09-04T14:21:01.333Z,24.90
2022-09-04T14:24:00.525Z,24.80
2022-09-04T14:26:48.573Z,24.70
2022-09-04T14:29:51.545Z,24.60
2022-09-04T14:32:42.590Z,24.50
2022-09-04T14:35:37.077Z,24.50
2022-09-04T14:38:43.502Z,24.40
2022-09-04T14:41:36.196Z,24.50
2022-09-04T14:44:30.617Z,24.60
2022-09-04T14:47:26.621Z,24.60
2022-09-04T14:50:01.133Z,24.60
2022-09-04T14:52:35.480Z,24.60
2022-09-04T14:55:06.725Z,24.50
2022-09-04T14:57:36.259Z,24.50
2022-09-04T15:00:11.487Z,24.60
2022-09-04T15:03:18.826Z,24.60
2022-09-04T15:06:05.397Z,24.40
2022-09-04T15:08:39.988Z,24.30
2022-09-04T15:11:30.779Z,24.20
2022-09-04T15:14:04.951Z,24.10
2022-09-04T15:16:46.708Z,24.10
2022-09-04T15:19:35.820Z,24.00
2022-09-04T15:22:21.559Z,23.90
2022-09-04T15:24:58.373Z,23.80
2022-09-04T15:27:49.833Z,23.60
2022-09-04T15:30:23.705Z,23.10
2022-09-04T15:33:10.023Z,23.50
2022-09-04T15:35:38.692Z,23.40
2022-09-04T15:38:21.007Z,23.40
2022-09-04T15:41:17.736Z,23.40
2022-09-04T15:43:57.484Z,23.40
2022-09-04T15:46:43.601Z,23.40
2022-09-04T15:49:43.253Z,23.30
2022-09-04T15:52:24.368Z,23.30
2022-09-04T15:55:18.695Z,23.30
2022-09-04T15:58:08.571Z,23.20
2022-09-04T16:00:56.395Z,23.20
2022-09-04T16:03:35.503Z,23.00
2022-09-04T16:06:15.621Z,23.10
2022-09-04T16:08:56.814Z,23.10
2022-09-04T16:11:38.614Z,23.10
2022-09-04T16:14:35.463Z,23.00
2022-09-04T16:17:13.066Z,23.00
2022-09-04T16:19:57.723Z,22.90
2022-09-04T16:22:38.119Z,22.90
2022-09-04T16:25:31.718Z,22.80
2022-09-04T16:28:19.962Z,22.70
2022-09-04T16:30:54.009Z,22.70
2022-09-04T16:33:28.560Z,22.70
2022-09-04T16:36:05.597Z,22.70
2022-09-04T16:38:43.959Z,22.70
2022-09-04T16:41:26.741Z,22.70
2022-09-04T16:44:26.041Z,22.70
2022-09-04T16:47:08.715Z,20.70
2022-09-04T16:49:54.539Z,22.60
2022-09-04T16:52:44.359Z,22.50
2022-09-04T16:55:24.669Z,22.40
2022-09-04T16:58:07.279Z,22.40
2022-09-04T17:00:53.397Z,22.40
2022-09-04T17:03:25.079Z,22.30
2022-09-04T17:06:06.158Z,22.20
2022-09-04T17:08:45.771Z,22.10
2022-09-04T17:11:55.851Z,22.00
2022-09-04T17:14:33.690Z,22.00
2022-09-04T17:17:30.060Z,22.00
2022-09-04T17:20:21.043Z,21.90
2022-09-04T17:28:56.584Z,21.90
2022-09-04T17:29:10.275Z,21.80
2022-09-04T17:29:34.943Z,21.70
2022-09-04T17:33:53.949Z,21.70
2022-09-04T17:40:41.303Z,21.60
2022-09-04T17:40:54.772Z,21.50
2022-09-04T17:41:36.637Z,21.40
2022-09-04T17:44:22.267Z,21.30
2022-09-04T17:47:06.682Z,21.20
2022-09-04T17:49:35.099Z,21.20
2022-09-04T17:52:09.001Z,21.00
2022-09-04T17:54:49.063Z,21.00
2022-09-04T17:57:28.411Z,20.90
2022-09-04T18:00:09.169Z,20.90
2022-09-04T18:02:57.906Z,20.90
2022-09-04T18:05:34.060Z,20.80
2022-09-04T18:08:30.181Z,20.80
2022-09-04T18:11:12.472Z,20.70
2022-09-04T18:14:23.009Z,20.70
2022-09-04T18:17:18.798Z,20.50
2022-09-04T18:20:02.845Z,20.50
2022-09-04T18:23:01.791Z,20.50
2022-09-04T18:25:34.912Z,20.40
2022-09-04T18:28:13.108Z,20.40
2022-09-04T18:37:09.712Z,20.30
2022-09-04T18:37:17.801Z,20.30
2022-09-04T18:37:23.985Z,20.20
2022-09-04T18:39:59.541Z,20.20
2022-09-04T18:50:25.657Z,20.10
2022-09-04T18:50:30.120Z,20.10
2022-09-04T18:50:52.397Z,20.00
2022-09-04T18:51:26.662Z,19.90
2022-09-04T18:54:13.617Z,19.90
2022-09-04T18:56:47.739Z,19.90
2022-09-04T18:59:21.258Z,19.90
2022-09-04T19:01:52.112Z,19.80
2022-09-04T19:04:58.827Z,19.80
2022-09-04T19:07:32.490Z,19.80
2022-09-04T19:10:28.290Z,19.70
2022-09-04T19:13:23.487Z,19.70
2022-09-04T19:16:01.969Z,19.60
2022-09-04T19:18:43.542Z,19.60
2022-09-04T19:21:14.144Z,19.50
2022-09-04T19:24:05.352Z,19.40
2022-09-04T19:27:27.092Z,19.40
2022-09-04T19:30:19.772Z,19.40
2022-09-04T19:33:00.386Z,19.40
2022-09-04T19:35:41.749Z,19.40
2022-09-04T19:46:01.577Z,19.30
2022-09-04T19:46:04.577Z,19.40
2022-09-04T19:46:05.850Z,19.40
2022-09-04T19:47:37.185Z,19.30
2022-09-04T19:53:18.471Z,19.20
2022-09-04T19:53:38.989Z,19.20
2022-09-04T19:56:23.430Z,19.10
2022-09-04T19:58:56.855Z,19.10
2022-09-04T20:01:30.016Z,19.00
2022-09-04T20:04:23.564Z,19.00
2022-09-04T20:06:55.414Z,19.00
2022-09-04T20:09:47.575Z,18.90
2022-09-04T20:12:25.262Z,18.90
2022-09-04T20:15:11.448Z,18.60
2022-09-04T20:18:03.944Z,18.80
2022-09-04T20:20:56.193Z,18.80
2022-09-04T20:23:46.107Z,18.80
2022-09-04T20:26:24.426Z,18.80
2022-09-04T20:29:19.994Z,18.80
2022-09-04T20:31:55.980Z,18.70
2022-09-04T20:34:42.697Z,18.70
2022-09-04T20:37:19.983Z,18.70
2022-09-04T20:40:16.149Z,18.40
2022-09-04T20:43:03.970Z,18.60
2022-09-04T20:48:37.683Z,18.60
2022-09-04T20:52:43.332Z,18.60
2022-09-04T20:52:59.681Z,18.50
2022-09-04T20:54:36.840Z,18.50
2022-09-04T21:00:39.263Z,18.50
2022-09-04T21:03:08.987Z,18.40
2022-09-04T21:03:36.736Z,18.40
2022-09-04T21:06:36.356Z,18.40
2022-09-04T21:09:24.395Z,18.30
2022-09-04T21:12:02.396Z,18.30
2022-09-04T21:14:45.825Z,18.30
2022-09-04T21:17:35.618Z,18.30
2022-09-04T21:20:24.468Z,18.20
2022-09-04T21:23:31.571Z,18.20
2022-09-04T21:26:04.199Z,18.20
2022-09-04T21:29:10.540Z,18.10
2022-09-04T21:32:16.459Z,18.10
2022-09-04T21:35:07.866Z,18.10
2022-09-04T21:37:47.152Z,18.00
2022-09-04T21:40:49.729Z,18.00
2022-09-04T21:44:09.205Z,18.00
2022-09-04T21:47:08.608Z,17.90
2022-09-04T21:50:16.813Z,17.90
2022-09-04T21:53:38.287Z,17.80
2022-09-04T22:00:14.287Z,17.80
2022-09-04T22:02:37.645Z,17.70
2022-09-04T22:03:31.972Z,17.70
2022-09-04T22:06:45.980Z,17.70
2022-09-04T22:13:34.155Z,17.60
2022-09-04T22:13:40.448Z,17.60
2022-09-04T22:16:18.386Z,17.60
2022-09-04T22:19:16.662Z,17.50
2022-09-04T22:22:08.131Z,17.50
2022-09-04T22:25:05.489Z,17.50
2022-09-04T22:28:18.629Z,17.40
2022-09-04T22:31:31.445Z,17.40
2022-09-04T22:34:17.562Z,17.40
2022-09-04T22:37:16.563Z,17.40
2022-09-04T22:40:03.417Z,17.40
2022-09-04T22:42:41.965Z,17.30
2022-09-04T22:45:41.727Z,17.20
2022-09-04T22:49:12.607Z,17.20
2022-09-04T22:52:14.309Z,17.20
2022-09-04T22:55:17.822Z,17.20
2022-09-04T22:58:30.864Z,17.30
2022-09-04T23:01:14.147Z,17.10
2022-09-04T23:03:54.361Z,17.10
2022-09-04T23:10:35.424Z,17.10
2022-09-04T23:13:48.829Z,17.10
2022-09-04T23:13:51.606Z,17.00
2022-09-04T23:15:47.603Z,16.90
2022-09-04T23:21:34.055Z,16.90
2022-09-04T23:26:46.045Z,16.90
2022-09-04T23:26:49.022Z,16.90
2022-09-04T23:28:28.107Z,16.80
2022-09-04T23:31:12.354Z,16.90
2022-09-04T23:34:25.297Z,16.90
2022-09-04T23:37:38.186Z,16.90
2022-09-04T23:40:51.139Z,16.80
2022-09-04T23:43:46.910Z,16.80
2022-09-04T23:46:13.694Z,16.80
2022-09-04T23:48:47.260Z,17.00
2022-09-04T23:51:29.631Z,16.70
2022-09-04T23:54:33.669Z,16.80
2022-09-04T23:57:11.232Z,16.80
